Time;durP1;ratioP1;P1;durP2;ratioP2;P2;SDS_P1;SDS_P2;PMS_P1;PMS_P2;Temp;Humidity;BMP_temperature;BMP_pressure;BME280_temperature;BME280_humidity;BME280_pressure;Samples;Min_cycle;Max_cycle;Signal;HPM_P1;HPM_P2
2021/07/27 00:01:06;0.00;0.00;0.62;0.00;0.00;0.62;2.73;2.10;;;28.50;32.70;;;;;;2264249;61;20361;-56
2021/07/27 00:03:33;0.00;0.00;0.62;0.00;0.00;0.62;3.33;2.10;;;28.50;32.70;;;;;;2266261;61;20705;-55
2021/07/27 00:05:59;0.00;0.00;0.62;0.00;0.00;0.62;2.70;2.40;;;28.50;32.60;;;;;;2266297;61;20594;-54
2021/07/27 00:08:26;0.00;0.00;0.62;0.00;0.00;0.62;2.83;2.57;;;28.50;32.70;;;;;;2264852;61;20353;-57
2021/07/27 00:10:54;0.00;0.00;0.62;0.00;0.00;0.62;3.67;2.47;;;28.50;32.80;;;;;;2266147;61;20384;-55
2021/07/27 00:13:20;0.00;0.00;0.62;0.00;0.00;0.62;3.27;2.63;;;28.40;32.80;;;;;;2266070;61;20762;-56
2021/07/27 00:15:47;0.00;0.00;0.62;0.00;0.00;0.62;2.57;2.23;;;28.40;32.80;;;;;;2265368;61;20364;-56
2021/07/27 00:18:13;0.00;0.00;0.62;0.00;0.00;0.62;3.13;2.80;;;28.40;32.90;;;;;;2266144;61;20438;-52
2021/07/27 00:20:40;0.00;0.00;0.62;0.00;0.00;0.62;2.67;2.33;;;28.40;32.90;;;;;;2265981;61;20354;-54
2021/07/27 00:23:07;0.00;0.00;0.62;0.00;0.00;0.62;2.70;2.40;;;28.40;33.00;;;;;;2248201;61;1041904;-55
2021/07/27 00:25:33;0.00;0.00;0.62;0.00;0.00;0.62;2.43;2.23;;;28.40;33.10;;;;;;2266262;61;20467;-53
2021/07/27 00:28:01;0.00;0.00;0.62;0.00;0.00;0.62;2.73;2.53;;;28.40;33.10;;;;;;2265813;61;20350;-52
2021/07/27 00:30:28;0.00;0.00;0.62;0.00;0.00;0.62;3.00;2.70;;;28.40;33.20;;;;;;2265684;61;20362;-52
2021/07/27 00:32:55;0.00;0.00;0.62;0.00;0.00;0.62;2.77;2.13;;;28.30;33.10;;;;;;2266163;61;20362;-54
2021/07/27 00:35:22;0.00;0.00;0.62;0.00;0.00;0.62;4.23;2.73;;;28.30;33.20;;;;;;2266108;61;20435;-53
2021/07/27 00:37:58;0.00;0.00;0.62;0.00;0.00;0.62;2.97;2.77;;;28.30;33.30;;;;;;2265710;61;20382;-56
2021/07/27 00:40:24;0.00;0.00;0.62;0.00;0.00;0.62;3.00;2.70;;;28.30;33.40;;;;;;2266195;61;20345;-53
2021/07/27 00:42:51;0.00;0.00;0.62;0.00;0.00;0.62;2.80;2.47;;;28.20;33.40;;;;;;2266075;61;20764;-53
2021/07/27 00:45:19;0.00;0.00;0.62;0.00;0.00;0.62;3.00;2.50;;;28.20;33.40;;;;;;2265686;61;20361;-52
2021/07/27 00:47:45;0.00;0.00;0.62;0.00;0.00;0.62;4.00;2.80;;;28.10;33.50;;;;;;2266257;61;20401;-53
2021/07/27 00:50:13;0.00;0.00;0.62;0.00;0.00;0.62;2.60;2.33;;;28.10;33.60;;;;;;2266000;61;20686;-56
2021/07/27 00:52:40;0.00;0.00;0.62;0.00;0.00;0.62;4.47;3.77;;;28.10;33.70;;;;;;2265613;61;20675;-54
2021/07/27 00:55:08;0.00;0.00;0.62;0.00;0.00;0.62;4.00;2.37;;;28.10;33.80;;;;;;2266052;61;20380;-52
2021/07/27 00:57:34;0.00;0.00;0.62;0.00;0.00;0.62;2.97;2.67;;;28.00;33.80;;;;;;2266060;61;20388;-51
2021/07/27 01:00:02;0.00;0.00;0.62;0.00;0.00;0.62;2.90;2.43;;;28.00;33.90;;;;;;2265059;61;20362;-53
2021/07/27 01:02:31;0.00;0.00;0.62;0.00;0.00;0.62;4.00;3.17;;;28.00;34.00;;;;;;2266109;61;20396;-54
2021/07/27 01:04:58;0.00;0.00;0.62;0.00;0.00;0.62;2.67;2.43;;;28.00;34.20;;;;;;2266035;61;20817;-52
2021/07/27 01:07:25;0.00;0.00;0.62;0.00;0.00;0.62;3.93;3.30;;;27.90;34.20;;;;;;2265601;61;20346;-57
2021/07/27 01:09:52;0.00;0.00;0.62;0.00;0.00;0.62;2.90;2.60;;;27.90;34.40;;;;;;2266048;61;20365;-56
2021/07/27 01:12:18;0.00;0.00;0.62;0.00;0.00;0.62;2.90;2.60;;;27.90;34.50;;;;;;2265886;61;20468;-54
2021/07/27 01:14:45;0.00;0.00;0.62;0.00;0.00;0.62;3.43;2.90;;;27.80;34.50;;;;;;2265797;61;20373;-54
2021/07/27 01:17:11;0.00;0.00;0.62;0.00;0.00;0.62;3.40;3.03;;;27.80;34.60;;;;;;2265891;61;20772;-56
2021/07/27 01:20:48;0.00;0.00;0.62;0.00;0.00;0.62;3.00;2.70;;;27.80;34.70;;;;;;2265987;61;20363;-56
2021/07/27 01:39:32;0.00;0.00;0.62;0.00;0.00;0.62;3.30;3.00;;;27.70;35.30;;;;;;2265803;61;20642;-55
2021/07/27 01:44:31;0.00;0.00;0.62;0.00;0.00;0.62;3.30;3.00;;;27.60;35.40;;;;;;2265425;61;20366;-53
2021/07/27 01:46:58;0.00;0.00;0.62;0.00;0.00;0.62;2.77;2.57;;;27.60;35.50;;;;;;2265897;61;20581;-52
2021/07/27 01:49:24;0.00;0.00;0.62;0.00;0.00;0.62;2.80;2.37;;;27.60;35.50;;;;;;2266135;61;20357;-53
2021/07/27 01:51:53;0.00;0.00;0.62;0.00;0.00;0.62;3.40;2.53;;;27.60;35.50;;;;;;2265312;61;20411;-52
2021/07/27 01:54:29;0.00;0.00;0.62;0.00;0.00;0.62;2.90;2.60;;;27.60;35.50;;;;;;2265363;61;20374;-54
2021/07/27 01:56:56;0.00;0.00;0.62;0.00;0.00;0.62;2.87;2.67;;;27.60;35.60;;;;;;2265666;61;20374;-56
2021/07/27 01:59:23;0.00;0.00;0.62;0.00;0.00;0.62;3.20;2.90;;;27.70;35.60;;;;;;2265284;61;20376;-56
2021/07/27 02:01:50;0.00;0.00;0.62;0.00;0.00;0.62;2.90;2.60;;;27.70;35.70;;;;;;2265882;61;20354;-54
2021/07/27 02:04:17;0.00;0.00;0.62;0.00;0.00;0.62;4.70;2.80;;;27.70;35.60;;;;;;2266026;61;20389;-53
2021/07/27 02:06:43;0.00;0.00;0.62;0.00;0.00;0.62;2.77;2.57;;;27.70;35.50;;;;;;2265405;61;20633;-51
2021/07/27 02:09:10;0.00;0.00;0.62;0.00;0.00;0.62;3.10;2.80;;;27.70;35.60;;;;;;2265408;61;20358;-54
2021/07/27 02:11:41;0.00;0.00;0.62;0.00;0.00;0.62;2.53;2.33;;;27.70;35.60;;;;;;2265895;61;20604;-51
2021/07/27 02:14:11;0.00;0.00;0.62;0.00;0.00;0.62;3.53;2.40;;;27.70;35.60;;;;;;2265251;61;20400;-54
2021/07/27 02:16:38;0.00;0.00;0.62;0.00;0.00;0.62;4.20;3.17;;;27.70;35.70;;;;;;2262127;61;20354;-53
2021/07/27 02:19:05;0.00;0.00;0.62;0.00;0.00;0.62;2.37;2.17;;;27.70;35.70;;;;;;2266014;61;20350;-55
2021/07/27 02:21:32;0.00;0.00;0.62;0.00;0.00;0.62;3.50;3.20;;;27.70;35.70;;;;;;2265324;61;20350;-55
2021/07/27 02:24:01;0.00;0.00;0.62;0.00;0.00;0.62;3.23;2.60;;;27.60;35.70;;;;;;2265476;61;20428;-54
2021/07/27 02:26:29;0.00;0.00;0.62;0.00;0.00;0.62;2.83;2.40;;;27.70;35.80;;;;;;2266013;61;20350;-54
2021/07/27 02:28:57;0.00;0.00;0.62;0.00;0.00;0.62;7.50;2.70;;;27.60;35.70;;;;;;2265291;61;20354;-54
2021/07/27 02:31:42;0.00;0.00;0.62;0.00;0.00;0.62;3.73;3.00;;;27.60;35.90;;;;;;2265701;61;20362;-55
2021/07/27 02:34:09;0.00;0.00;0.62;0.00;0.00;0.62;4.13;3.43;;;27.60;36.00;;;;;;2265790;61;20612;-53
2021/07/27 02:36:36;0.00;0.00;0.62;0.00;0.00;0.62;2.90;2.60;;;27.60;36.00;;;;;;2265081;61;20357;-53
2021/07/27 02:39:06;0.00;0.00;0.62;0.00;0.00;0.62;3.23;2.73;;;27.50;35.90;;;;;;2265922;61;20437;-55
2021/07/27 02:41:34;0.00;0.00;0.62;0.00;0.00;0.62;4.13;3.27;;;27.50;36.00;;;;;;2265656;61;20619;-54
2021/07/27 02:44:03;0.00;0.00;0.62;0.00;0.00;0.62;5.43;2.50;;;27.50;36.00;;;;;;2264923;61;20374;-56
2021/07/27 02:46:30;0.00;0.00;0.62;0.00;0.00;0.62;3.17;2.90;;;27.40;36.00;;;;;;2265530;61;20362;-56
2021/07/27 02:49:01;0.00;0.00;0.62;0.00;0.00;0.62;3.57;2.97;;;27.50;36.30;;;;;;2265909;61;20358;-56
2021/07/27 02:51:27;0.00;0.00;0.62;0.00;0.00;0.62;3.73;2.90;;;27.40;36.20;;;;;;2265012;61;20347;-56
2021/07/27 02:53:54;0.00;0.00;0.62;0.00;0.00;0.62;4.97;3.23;;;27.40;36.30;;;;;;2265805;61;20385;-57
2021/07/27 02:56:21;0.00;0.00;0.62;0.00;0.00;0.62;5.60;3.20;;;27.40;36.40;;;;;;2265906;61;20703;-56
2021/07/27 02:58:48;0.00;0.00;0.62;0.00;0.00;0.62;2.67;2.47;;;27.40;36.40;;;;;;2264902;61;20382;-56
2021/07/27 03:01:15;0.00;0.00;0.62;0.00;0.00;0.62;6.20;2.87;;;27.40;36.50;;;;;;2265713;61;20365;-54
2021/07/27 03:03:42;0.00;0.00;0.62;0.00;0.00;0.62;3.10;2.70;;;27.40;36.60;;;;;;2265838;61;20378;-55
2021/07/27 03:06:12;0.00;0.00;0.62;0.00;0.00;0.62;3.10;2.77;;;27.40;36.60;;;;;;2264810;61;20376;-52
2021/07/27 03:11:23;0.00;0.00;0.62;0.00;0.00;0.62;3.20;2.90;;;27.40;36.70;;;;;;2265518;61;20357;-55
2021/07/27 03:13:49;0.00;0.00;0.62;0.00;0.00;0.62;3.57;2.93;;;27.40;36.60;;;;;;2265127;61;20384;-54
2021/07/27 03:16:21;0.00;0.00;0.62;0.00;0.00;0.62;3.77;3.23;;;27.40;36.80;;;;;;2265788;61;20561;-54
2021/07/27 03:18:51;0.00;0.00;0.62;0.00;0.00;0.62;3.50;3.10;;;27.40;36.80;;;;;;2265496;61;20431;-53
2021/07/27 03:21:18;0.00;0.00;0.62;0.00;0.00;0.62;3.60;3.30;;;27.40;36.90;;;;;;2265107;61;20623;-52
2021/07/27 03:23:45;0.00;0.00;0.62;0.00;0.00;0.62;3.73;3.20;;;27.30;36.90;;;;;;2265668;61;20382;-55
2021/07/27 03:26:12;0.00;0.00;0.62;0.00;0.00;0.62;4.30;3.13;;;27.30;36.90;;;;;;2265436;61;20362;-53
2021/07/27 03:28:42;0.00;0.00;0.62;0.00;0.00;0.62;3.07;2.77;;;27.30;36.90;;;;;;2265328;61;20350;-52
2021/07/27 03:31:08;0.00;0.00;0.62;0.00;0.00;0.62;3.63;3.10;;;27.30;37.00;;;;;;2265162;61;20416;-53
2021/07/27 03:33:37;0.00;0.00;0.62;0.00;0.00;0.62;3.87;3.53;;;27.30;37.00;;;;;;2265433;61;20608;-55
2021/07/27 03:36:04;0.00;0.00;0.62;0.00;0.00;0.62;4.27;2.93;;;27.30;37.00;;;;;;2265076;61;20394;-51
2021/07/27 03:38:32;0.00;0.00;0.62;0.00;0.00;0.62;5.23;3.90;;;27.20;36.90;;;;;;2265710;61;20636;-52
2021/07/27 03:41:05;0.00;0.00;0.62;0.00;0.00;0.62;3.50;2.80;;;27.20;37.00;;;;;;2265301;61;20484;-52
2021/07/27 03:43:32;0.00;0.00;0.62;0.00;0.00;0.62;3.63;3.33;;;27.20;37.10;;;;;;2264943;61;20718;-52
2021/07/27 03:45:59;0.00;0.00;0.62;0.00;0.00;0.62;3.53;3.20;;;27.20;37.20;;;;;;2265822;61;20354;-53
2021/07/27 03:48:26;0.00;0.00;0.62;0.00;0.00;0.62;3.67;3.20;;;27.20;37.10;;;;;;2265367;61;20391;-56
2021/07/27 03:50:54;0.00;0.00;0.62;0.00;0.00;0.62;7.20;2.97;;;27.20;37.20;;;;;;2265041;61;20351;-54
2021/07/27 03:53:22;0.00;0.00;0.62;0.00;0.00;0.62;4.53;3.50;;;27.20;37.30;;;;;;2265713;61;20422;-55
2021/07/27 03:55:49;0.00;0.00;0.62;0.00;0.00;0.62;3.23;2.73;;;27.20;37.20;;;;;;2265389;61;20396;-54
2021/07/27 03:58:15;0.00;0.00;0.62;0.00;0.00;0.62;3.63;3.30;;;27.20;37.20;;;;;;2264941;61;20389;-52
2021/07/27 04:00:42;0.00;0.00;0.62;0.00;0.00;0.62;3.90;3.50;;;27.10;37.20;;;;;;2265600;61;20354;-53
2021/07/27 04:03:08;0.00;0.00;0.62;0.00;0.00;0.62;4.77;3.43;;;27.20;37.30;;;;;;2265296;61;20381;-55
2021/07/27 04:05:35;0.00;0.00;0.62;0.00;0.00;0.62;4.33;3.30;;;27.10;37.30;;;;;;2265044;61;20338;-56
2021/07/27 04:08:04;0.00;0.00;0.62;0.00;0.00;0.62;3.58;3.25;;;27.10;37.30;;;;;;2265702;61;20358;-54
2021/07/27 04:10:31;0.00;0.00;0.62;0.00;0.00;0.62;6.60;3.80;;;27.10;37.50;;;;;;2264631;61;20318;-56
2021/07/27 04:12:58;0.00;0.00;0.62;0.00;0.00;0.62;7.40;4.00;;;27.10;37.40;;;;;;2265068;61;20401;-55
2021/07/27 04:15:40;0.00;0.00;0.62;0.00;0.00;0.62;7.90;4.40;;;27.10;37.40;;;;;;2265243;61;20350;-56
2021/07/27 04:18:07;0.00;0.00;0.62;0.00;0.00;0.62;5.50;3.97;;;27.10;37.50;;;;;;2265241;61;20651;-54
2021/07/27 04:20:33;0.00;0.00;0.62;0.00;0.00;0.62;4.20;3.30;;;27.10;37.50;;;;;;2264985;61;20596;-56
2021/07/27 04:23:01;0.00;0.00;0.62;0.00;0.00;0.62;4.70;4.10;;;27.10;37.60;;;;;;2265500;61;20365;-55
2021/07/27 04:25:30;0.00;0.00;0.62;0.00;0.00;0.62;8.43;3.77;;;27.10;37.60;;;;;;2264774;61;20370;-57
2021/07/27 04:27:57;0.00;0.00;0.62;0.00;0.00;0.62;6.60;4.33;;;27.10;37.60;;;;;;2265109;61;20358;-55
2021/07/27 04:30:24;0.00;0.00;0.62;0.00;0.00;0.62;9.60;3.80;;;27.10;37.60;;;;;;2265433;61;20362;-54
2021/07/27 04:32:51;0.00;0.00;0.62;0.00;0.00;0.62;4.30;3.80;;;27.10;37.60;;;;;;2265267;61;20350;-53
2021/07/27 04:35:17;0.00;0.00;0.62;0.00;0.00;0.62;6.90;3.60;;;27.10;37.60;;;;;;2264622;61;20361;-54
2021/07/27 04:37:44;0.00;0.00;0.62;0.00;0.00;0.62;7.77;4.47;;;27.10;37.60;;;;;;2265441;61;20584;-54
2021/07/27 04:40:11;0.00;0.00;0.62;0.00;0.00;0.62;4.97;3.87;;;27.00;37.60;;;;;;2265143;61;20380;-53
2021/07/27 04:42:40;0.00;0.00;0.62;0.00;0.00;0.62;6.87;5.60;;;27.00;37.60;;;;;;2265005;61;20698;-56
2021/07/27 04:45:08;0.00;0.00;0.62;0.00;0.00;0.62;6.80;4.40;;;27.10;37.80;;;;;;2265394;61;20382;-56
2021/07/27 04:47:35;0.00;0.00;0.62;0.00;0.00;0.62;5.10;4.30;;;27.00;37.70;;;;;;2265643;61;20358;-54
2021/07/27 04:50:02;0.00;0.00;0.62;0.00;0.00;0.62;5.40;4.10;;;27.00;38.50;;;;;;2265631;61;20365;-53
2021/07/27 04:52:30;0.00;0.00;0.62;0.00;0.00;0.62;7.23;4.07;;;27.00;37.80;;;;;;2266104;61;20599;-54
2021/07/27 04:54:57;0.00;0.00;0.62;0.00;0.00;0.62;6.20;5.10;;;27.00;37.80;;;;;;2265965;61;20378;-56
2021/07/27 04:57:24;0.00;0.00;0.62;0.00;0.00;0.62;5.90;5.07;;;27.00;37.80;;;;;;2265639;61;20384;-51
2021/07/27 04:59:52;0.00;0.00;0.62;0.00;0.00;0.62;6.20;5.03;;;27.00;37.80;;;;;;2266013;61;20354;-57
2021/07/27 05:02:18;0.00;0.00;0.62;0.00;0.00;0.62;7.73;4.83;;;27.00;37.90;;;;;;2265914;61;20769;-57
2021/07/27 05:04:45;0.00;0.00;0.62;0.00;0.00;0.62;5.53;4.40;;;27.00;38.00;;;;;;2265484;61;20374;-56
2021/07/27 05:07:12;0.00;0.00;0.62;0.00;0.00;0.62;5.43;4.10;;;27.00;38.10;;;;;;2266123;61;20357;-57
2021/07/27 05:09:41;0.00;0.00;0.62;0.00;0.00;0.62;5.57;5.07;;;27.00;38.10;;;;;;2266020;61;20361;-59
2021/07/27 05:12:08;0.00;0.00;0.62;0.00;0.00;0.62;6.60;4.83;;;27.00;38.10;;;;;;2265263;61;20362;-57
2021/07/27 05:14:35;0.00;0.00;0.62;0.00;0.00;0.62;6.20;4.43;;;26.90;38.00;;;;;;2265144;61;20601;-57
2021/07/27 05:17:12;0.00;0.00;0.62;0.00;0.00;0.62;5.60;4.57;;;26.90;38.10;;;;;;2265810;61;20354;-58
2021/07/27 05:19:50;0.00;0.00;0.62;0.00;0.00;0.62;8.60;5.23;;;26.90;38.20;;;;;;2265278;61;20358;-59
2021/07/27 05:22:17;0.00;0.00;0.62;0.00;0.00;0.62;5.73;3.93;;;26.90;38.20;;;;;;2265658;61;20370;-57
2021/07/27 05:24:43;0.00;0.00;0.62;0.00;0.00;0.62;6.60;4.50;;;26.80;38.20;;;;;;2265816;61;20416;-59
2021/07/27 05:27:10;0.00;0.00;0.62;0.00;0.00;0.62;8.10;4.83;;;26.90;38.40;;;;;;2264800;61;20687;-57
2021/07/27 05:29:37;0.00;0.00;0.62;0.00;0.00;0.62;5.50;4.13;;;26.80;38.40;;;;;;2265850;61;20609;-55
2021/07/27 05:32:05;0.00;0.00;0.62;0.00;0.00;0.62;7.07;5.00;;;26.80;38.40;;;;;;2265795;61;20449;-59
2021/07/27 05:34:33;0.00;0.00;0.62;0.00;0.00;0.62;5.33;4.70;;;26.80;38.50;;;;;;2265176;61;20377;-59
2021/07/27 05:37:00;0.00;0.00;0.62;0.00;0.00;0.62;4.87;4.40;;;26.80;38.60;;;;;;2265662;61;20366;-57
2021/07/27 05:39:26;0.00;0.00;0.62;0.00;0.00;0.62;4.53;4.07;;;26.70;38.60;;;;;;2265843;61;20365;-59
2021/07/27 05:41:53;0.00;0.00;0.62;0.00;0.00;0.62;6.43;4.10;;;26.70;38.60;;;;;;2265079;61;20358;-59
2021/07/27 05:44:24;0.00;0.00;0.62;0.00;0.00;0.62;8.20;4.70;;;26.70;38.70;;;;;;2265619;61;20599;-57
2021/07/27 05:46:50;0.00;0.00;0.62;0.00;0.00;0.62;5.70;5.10;;;26.70;38.80;;;;;;2265839;61;20397;-55
2021/07/27 05:49:17;0.00;0.00;0.62;0.00;0.00;0.62;5.50;4.97;;;26.70;38.80;;;;;;2265173;61;20354;-59
2021/07/27 05:51:45;0.00;0.00;0.62;0.00;0.00;0.62;6.00;5.40;;;26.70;38.90;;;;;;2265768;61;20389;-59
2021/07/27 05:54:12;0.00;0.00;0.62;0.00;0.00;0.62;7.40;6.63;;;26.70;39.00;;;;;;2265833;61;20469;-59
2021/07/27 05:56:39;0.00;0.00;0.62;0.00;0.00;0.62;6.17;5.40;;;26.70;39.10;;;;;;2265107;61;20432;-59
2021/07/27 05:59:05;0.00;0.00;0.62;0.00;0.00;0.62;8.50;6.80;;;26.70;39.10;;;;;;2265334;61;20400;-59
2021/07/27 06:01:32;0.00;0.00;0.62;0.00;0.00;0.62;9.27;7.13;;;26.70;39.20;;;;;;2265750;61;20369;-60
2021/07/27 06:03:59;0.00;0.00;0.62;0.00;0.00;0.62;8.40;7.57;;;26.60;39.10;;;;;;2264962;61;20378;-56
2021/07/27 06:06:30;0.00;0.00;0.62;0.00;0.00;0.62;9.50;8.33;;;26.60;39.20;;;;;;2265321;61;20408;-55
2021/07/27 06:09:00;0.00;0.00;0.62;0.00;0.00;0.62;9.00;8.20;;;26.60;39.20;;;;;;2265812;61;20357;-58
2021/07/27 06:11:27;0.00;0.00;0.62;0.00;0.00;0.62;11.63;9.27;;;26.60;39.30;;;;;;2264492;61;20759;-55
2021/07/27 06:13:54;0.00;0.00;0.62;0.00;0.00;0.62;10.53;9.30;;;26.60;39.20;;;;;;2265206;61;20745;-62
2021/07/27 06:16:20;0.00;0.00;0.62;0.00;0.00;0.62;10.37;9.30;;;26.60;39.30;;;;;;2265767;61;20350;-55
2021/07/27 06:18:47;0.00;0.00;0.62;0.00;0.00;0.62;11.17;8.73;;;26.50;39.20;;;;;;2264936;61;20384;-59
2021/07/27 06:21:14;0.00;0.00;0.62;0.00;0.00;0.62;9.27;8.47;;;26.50;39.30;;;;;;2265003;61;20364;-60
2021/07/27 06:23:41;0.00;0.00;0.62;0.00;0.00;0.62;9.50;8.60;;;26.50;39.40;;;;;;2265542;61;20446;-55
2021/07/27 06:26:09;0.00;0.00;0.62;0.00;0.00;0.62;9.57;8.67;;;26.50;39.30;;;;;;2264911;61;20361;-57
2021/07/27 06:28:37;0.00;0.00;0.62;0.00;0.00;0.62;10.40;9.30;;;26.50;39.40;;;;;;2265722;61;20361;-54
2021/07/27 06:31:10;0.00;0.00;0.62;0.00;0.00;0.62;9.20;8.20;;;26.50;39.50;;;;;;2265459;61;20354;-58
2021/07/27 06:33:37;0.00;0.00;0.62;0.00;0.00;0.62;9.30;8.40;;;26.50;39.50;;;;;;2264988;61;20428;-58
2021/07/27 06:36:05;0.00;0.00;0.62;0.00;0.00;0.62;9.60;8.60;;;26.50;39.50;;;;;;2265632;61;20666;-60
2021/07/27 06:38:31;0.00;0.00;0.62;0.00;0.00;0.62;9.43;8.43;;;26.50;39.60;;;;;;2265457;61;20726;-57
2021/07/27 06:40:58;0.00;0.00;0.62;0.00;0.00;0.62;8.83;8.00;;;26.40;39.50;;;;;;2264709;61;20740;-59
2021/07/27 06:43:26;0.00;0.00;0.62;0.00;0.00;0.62;9.23;8.33;;;26.40;39.50;;;;;;2265640;61;20457;-59
2021/07/27 06:45:54;0.00;0.00;0.62;0.00;0.00;0.62;10.00;9.10;;;26.40;39.50;;;;;;2265523;61;20442;-56
2021/07/27 06:48:21;0.00;0.00;0.62;0.00;0.00;0.62;9.93;9.03;;;26.40;39.50;;;;;;2264917;61;20357;-57
2021/07/27 06:50:47;0.00;0.00;0.62;0.00;0.00;0.62;9.50;8.60;;;26.40;39.50;;;;;;2265578;61;20682;-58
2021/07/27 06:53:14;0.00;0.00;0.62;0.00;0.00;0.62;9.73;8.87;;;26.40;39.50;;;;;;2265425;61;20846;-58
2021/07/27 06:55:41;0.00;0.00;0.62;0.00;0.00;0.62;9.13;8.13;;;26.40;39.50;;;;;;2264910;61;20441;-59
2021/07/27 06:58:07;0.00;0.00;0.62;0.00;0.00;0.62;8.80;8.10;;;26.40;39.60;;;;;;2265523;61;20384;-60
2021/07/27 07:00:36;0.00;0.00;0.62;0.00;0.00;0.62;8.33;7.63;;;26.40;39.50;;;;;;2264911;61;20362;-59
2021/07/27 07:03:02;0.00;0.00;0.62;0.00;0.00;0.62;9.90;8.87;;;26.40;39.60;;;;;;2264749;61;20357;-57
2021/07/27 07:05:29;0.00;0.00;0.62;0.00;0.00;0.62;9.67;8.77;;;26.40;39.60;;;;;;2265535;61;20358;-56
2021/07/27 07:07:55;0.00;0.00;0.62;0.00;0.00;0.62;9.07;7.50;;;26.50;39.70;;;;;;2265441;61;20682;-59
2021/07/27 07:10:22;0.00;0.00;0.62;0.00;0.00;0.62;8.93;8.13;;;26.50;39.60;;;;;;2264673;61;20366;-59
2021/07/27 07:12:49;0.00;0.00;0.62;0.00;0.00;0.62;7.90;7.20;;;26.50;39.60;;;;;;2265565;61;20390;-56
2021/07/27 07:15:16;0.00;0.00;0.62;0.00;0.00;0.62;8.43;7.73;;;26.50;39.50;;;;;;2264941;61;20358;-57
2021/07/27 07:17:44;0.00;0.00;0.62;0.00;0.00;0.62;7.97;7.20;;;26.40;39.50;;;;;;2264762;61;20443;-59
2021/07/27 07:20:12;0.00;0.00;0.62;0.00;0.00;0.62;8.40;6.20;;;26.50;39.60;;;;;;2265251;61;20433;-59
2021/07/27 07:22:39;0.00;0.00;0.62;0.00;0.00;0.62;7.80;7.10;;;26.40;39.50;;;;;;2265352;61;20445;-56
2021/07/27 07:25:07;0.00;0.00;0.62;0.00;0.00;0.62;6.77;6.17;;;26.50;39.70;;;;;;2264776;61;20421;-60
2021/07/27 07:27:34;0.00;0.00;0.62;0.00;0.00;0.62;7.37;6.77;;;26.50;39.80;;;;;;2265651;61;20354;-58
2021/07/27 07:30:01;0.00;0.00;0.62;0.00;0.00;0.62;6.20;5.70;;;26.50;39.70;;;;;;2265311;61;20550;-61
2021/07/27 07:32:27;0.00;0.00;0.62;0.00;0.00;0.62;6.63;6.03;;;26.50;39.60;;;;;;2264929;61;20357;-54
2021/07/27 07:34:55;0.00;0.00;0.62;0.00;0.00;0.62;7.90;7.20;;;26.60;39.70;;;;;;2265413;61;20389;-58
2021/07/27 07:37:22;0.00;0.00;0.62;0.00;0.00;0.62;9.37;8.57;;;26.60;39.50;;;;;;2265308;61;20382;-58
2021/07/27 07:39:49;0.00;0.00;0.62;0.00;0.00;0.62;9.23;8.50;;;26.70;39.50;;;;;;2264855;61;20738;-59
2021/07/27 07:42:16;0.00;0.00;0.62;0.00;0.00;0.62;9.50;8.63;;;26.70;39.30;;;;;;2265345;61;20350;-55
2021/07/27 07:44:42;0.00;0.00;0.62;0.00;0.00;0.62;9.90;9.10;;;26.70;39.20;;;;;;2265315;61;20381;-58
2021/07/27 07:47:10;0.00;0.00;0.62;0.00;0.00;0.62;8.57;7.87;;;26.70;39.20;;;;;;2264949;61;20350;-57
2021/07/27 07:49:36;0.00;0.00;0.62;0.00;0.00;0.62;9.77;8.87;;;26.70;39.10;;;;;;2265281;61;20401;-54
2021/07/27 07:52:05;0.00;0.00;0.62;0.00;0.00;0.62;8.20;7.40;;;26.70;39.10;;;;;;2264843;61;20362;-50
2021/07/27 07:54:33;0.00;0.00;0.62;0.00;0.00;0.62;8.23;7.53;;;26.70;39.90;;;;;;2265006;61;20726;-58
2021/07/27 07:57:00;0.00;0.00;0.62;0.00;0.00;0.62;8.67;7.80;;;26.70;39.30;;;;;;2265193;61;20357;-57
2021/07/27 07:59:26;0.00;0.00;0.62;0.00;0.00;0.62;7.57;6.87;;;26.70;39.30;;;;;;2265238;61;20411;-56
2021/07/27 08:01:58;0.00;0.00;0.62;0.00;0.00;0.62;7.90;7.20;;;26.80;39.40;;;;;;2264942;61;20354;-57
2021/07/27 08:04:25;0.00;0.00;0.62;0.00;0.00;0.62;7.27;6.60;;;26.80;39.50;;;;;;2264589;61;20733;-59
2021/07/27 08:06:54;0.00;0.00;0.62;0.00;0.00;0.62;8.83;7.93;;;26.80;39.50;;;;;;2265480;61;20358;-59
2021/07/27 08:09:22;0.00;0.00;0.62;0.00;0.00;0.62;7.50;6.80;;;26.80;39.50;;;;;;2264993;61;20346;-56
2021/07/27 08:11:48;0.00;0.00;0.62;0.00;0.00;0.62;7.23;6.63;;;26.90;39.50;;;;;;2265085;61;20362;-58
2021/07/27 08:14:15;0.00;0.00;0.62;0.00;0.00;0.62;6.80;6.23;;;26.90;39.50;;;;;;2265457;61;20499;-58
2021/07/27 08:16:42;0.00;0.00;0.62;0.00;0.00;0.62;7.57;6.73;;;27.00;39.60;;;;;;2261375;61;20574;-54
2021/07/27 08:19:09;0.00;0.00;0.62;0.00;0.00;0.62;8.10;7.17;;;27.00;39.60;;;;;;2264999;61;20408;-57
2021/07/27 08:21:35;0.00;0.00;0.62;0.00;0.00;0.62;7.10;6.50;;;27.00;39.50;;;;;;2265302;61;20358;-57
2021/07/27 08:24:02;0.00;0.00;0.62;0.00;0.00;0.62;7.30;6.70;;;27.10;39.60;;;;;;2265145;61;20377;-57
2021/07/27 08:26:30;0.00;0.00;0.62;0.00;0.00;0.62;7.03;6.50;;;27.10;39.60;;;;;;2265725;61;20644;-53
2021/07/27 08:28:57;0.00;0.00;0.62;0.00;0.00;0.62;6.93;6.30;;;27.10;39.50;;;;;;2266161;61;20552;-55
2021/07/27 08:31:23;0.00;0.00;0.62;0.00;0.00;0.62;7.37;6.77;;;27.20;39.50;;;;;;2265544;61;20674;-56
2021/07/27 08:33:50;0.00;0.00;0.62;0.00;0.00;0.62;8.40;7.20;;;27.20;39.50;;;;;;2265674;61;20377;-56
2021/07/27 08:36:17;0.00;0.00;0.62;0.00;0.00;0.62;6.93;6.33;;;27.20;39.30;;;;;;2266108;61;20633;-57
2021/07/27 08:38:44;0.00;0.00;0.62;0.00;0.00;0.62;7.77;7.13;;;27.30;39.30;;;;;;2265747;61;20386;-59
2021/07/27 08:41:13;0.00;0.00;0.62;0.00;0.00;0.62;7.03;6.43;;;27.30;39.30;;;;;;2265310;61;20389;-57
2021/07/27 08:43:40;0.00;0.00;0.62;0.00;0.00;0.62;7.77;6.97;;;27.30;39.30;;;;;;2266073;61;20380;-58
2021/07/27 08:46:07;0.00;0.00;0.62;0.00;0.00;0.62;7.30;6.60;;;27.40;39.20;;;;;;2265665;61;20361;-57
2021/07/27 08:48:36;0.00;0.00;0.62;0.00;0.00;0.62;7.40;6.80;;;27.40;39.20;;;;;;2265843;61;20346;-56
2021/07/27 08:51:02;0.00;0.00;0.62;0.00;0.00;0.62;7.37;6.87;;;27.40;39.10;;;;;;2265505;61;20361;-56
2021/07/27 08:53:29;0.00;0.00;0.62;0.00;0.00;0.62;8.00;7.20;;;27.50;39.20;;;;;;2265482;61;20417;-58
2021/07/27 08:55:59;0.00;0.00;0.62;0.00;0.00;0.62;8.57;7.77;;;27.50;39.10;;;;;;2266038;61;20354;-59
2021/07/27 08:58:27;0.00;0.00;0.62;0.00;0.00;0.62;8.10;7.40;;;27.50;39.00;;;;;;2265985;61;20382;-57
2021/07/27 09:00:55;0.00;0.00;0.62;0.00;0.00;0.62;9.23;7.80;;;27.60;39.00;;;;;;2265315;61;20445;-57
2021/07/27 09:03:22;0.00;0.00;0.62;0.00;0.00;0.62;7.93;7.23;;;27.60;39.00;;;;;;2265793;61;20393;-57
2021/07/27 09:06:02;0.00;0.00;0.62;0.00;0.00;0.62;9.03;8.10;;;27.60;38.80;;;;;;2265923;61;20671;-59
2021/07/27 09:08:30;0.00;0.00;0.62;0.00;0.00;0.62;8.67;7.77;;;27.60;38.70;;;;;;2265429;61;20350;-60
2021/07/27 09:11:00;0.00;0.00;0.62;0.00;0.00;0.62;8.03;7.33;;;27.70;38.70;;;;;;2265810;61;20390;-53
2021/07/27 09:13:32;0.00;0.00;0.62;0.00;0.00;0.62;8.33;7.53;;;27.70;38.60;;;;;;2265818;61;20385;-53
2021/07/27 09:16:01;0.00;0.00;0.62;0.00;0.00;0.62;8.17;7.57;;;27.70;38.50;;;;;;2265369;61;20381;-54
2021/07/27 09:18:30;0.00;0.00;0.62;0.00;0.00;0.62;7.90;7.20;;;27.70;38.50;;;;;;2265880;61;20385;-59
2021/07/27 09:20:58;0.00;0.00;0.62;0.00;0.00;0.62;7.43;6.83;;;27.70;38.50;;;;;;2265980;61;20741;-53
2021/07/27 09:23:27;0.00;0.00;0.62;0.00;0.00;0.62;7.87;6.90;;;27.80;38.50;;;;;;2265183;61;20392;-53
2021/07/27 09:25:56;0.00;0.00;0.62;0.00;0.00;0.62;8.03;7.30;;;27.80;38.40;;;;;;2265967;61;20350;-58
2021/07/27 09:28:24;0.00;0.00;0.62;0.00;0.00;0.62;8.97;8.17;;;27.80;38.40;;;;;;2265879;61;20399;-56
2021/07/27 09:30:57;0.00;0.00;0.62;0.00;0.00;0.62;7.80;7.20;;;27.80;38.30;;;;;;2264625;61;20399;-57
2021/07/27 09:33:31;0.00;0.00;0.62;0.00;0.00;0.62;7.50;6.80;;;27.90;38.40;;;;;;2265766;61;20460;-54
2021/07/27 09:35:57;0.00;0.00;0.62;0.00;0.00;0.62;8.10;7.40;;;27.90;38.40;;;;;;2265862;61;20354;-56
2021/07/27 09:38:26;0.00;0.00;0.62;0.00;0.00;0.62;8.50;7.73;;;27.90;38.30;;;;;;2265151;61;20385;-55
2021/07/27 09:40:54;0.00;0.00;0.62;0.00;0.00;0.62;7.10;6.47;;;27.90;38.30;;;;;;2265661;61;20357;-58
2021/07/27 09:43:23;0.00;0.00;0.62;0.00;0.00;0.62;7.40;6.80;;;27.90;38.30;;;;;;2265697;61;20374;-54
2021/07/27 09:45:52;0.00;0.00;0.62;0.00;0.00;0.62;7.50;6.80;;;28.00;38.30;;;;;;2265273;61;20357;-55
2021/07/27 09:48:23;0.00;0.00;0.62;0.00;0.00;0.62;8.47;7.67;;;28.00;38.20;;;;;;2265372;61;20622;-58
2021/07/27 09:50:53;0.00;0.00;0.62;0.00;0.00;0.62;8.10;7.40;;;28.00;38.20;;;;;;2265731;61;20353;-59
2021/07/27 09:53:20;0.00;0.00;0.62;0.00;0.00;0.62;9.30;8.40;;;28.00;38.00;;;;;;2265251;61;20374;-58
2021/07/27 09:55:47;0.00;0.00;0.62;0.00;0.00;0.62;8.27;7.53;;;28.00;37.80;;;;;;2265760;61;20675;-58
2021/07/27 09:58:15;0.00;0.00;0.62;0.00;0.00;0.62;8.47;7.60;;;28.00;37.60;;;;;;2265656;61;20389;-59
2021/07/27 10:01:00;0.00;0.00;0.62;0.00;0.00;0.62;9.60;8.60;;;28.00;37.50;;;;;;2265044;61;20625;-60
2021/07/27 10:03:32;0.00;0.00;0.62;0.00;0.00;0.62;10.40;9.27;;;28.00;37.40;;;;;;2265742;61;20734;-57
2021/07/27 10:06:02;0.00;0.00;0.62;0.00;0.00;0.62;9.53;8.73;;;28.00;37.30;;;;;;2265681;61;20392;-56